createdAt,value
2017-05-29T09:22:29.252Z,42.10
2017-05-29T09:24:58.812Z,42.30
2017-05-29T09:27:28.340Z,41.40
2017-05-29T09:29:57.067Z,42.90
2017-05-29T09:32:25.538Z,42.90
2017-05-29T09:34:53.974Z,42.20
2017-05-29T09:37:23.603Z,40.80
2017-05-29T09:39:52.131Z,41.20
2017-05-29T09:42:21.457Z,40.00
2017-05-29T09:44:50.073Z,41.20
2017-05-29T09:47:18.446Z,41.10
2017-05-29T09:52:21.965Z,40.50
2017-05-29T09:54:50.575Z,38.70
2017-05-29T09:57:19.976Z,39.10
2017-05-29T09:59:49.838Z,38.90
2017-05-29T10:02:18.217Z,40.30
2017-05-29T10:04:46.525Z,41.20
2017-05-29T10:07:15.321Z,40.40
2017-05-29T10:09:43.643Z,43.60
2017-05-29T10:12:11.934Z,42.90
2017-05-29T10:14:40.551Z,42.90
2017-05-29T10:17:09.654Z,42.40
2017-05-29T10:19:42.319Z,42.60
2017-05-29T10:22:10.814Z,42.20
2017-05-29T10:24:39.320Z,41.60
2017-05-29T10:27:09.750Z,38.90
2017-05-29T10:29:38.812Z,38.40
2017-05-29T10:32:07.829Z,39.40
2017-05-29T10:34:36.992Z,41.30
2017-05-29T10:37:07.419Z,42.50
2017-05-29T10:39:37.029Z,40.50
2017-05-29T10:42:06.083Z,40.60
2017-05-29T10:44:35.505Z,42.30
2017-05-29T10:47:03.986Z,42.90
2017-05-29T10:49:32.946Z,42.10
2017-05-29T10:52:01.442Z,42.30
2017-05-29T10:54:30.023Z,42.10
2017-05-29T10:56:59.708Z,41.50
2017-05-29T10:59:28.178Z,41.90
2017-05-29T11:01:56.707Z,41.90
2017-05-29T11:04:25.430Z,42.40
2017-05-29T11:06:53.802Z,40.50
2017-05-29T11:09:22.391Z,41.60
2017-05-29T11:11:51.089Z,39.60
2017-05-29T11:14:19.544Z,40.70
2017-05-29T11:16:48.672Z,40.10
2017-05-29T11:19:17.570Z,40.50
2017-05-29T11:21:48.209Z,39.60
2017-05-29T11:24:16.715Z,39.30
2017-05-29T11:26:45.609Z,39.40
2017-05-29T11:29:15.702Z,39.80
2017-05-29T11:31:46.404Z,39.90
2017-05-29T11:34:14.844Z,39.30
2017-05-29T11:36:43.222Z,38.40
2017-05-29T11:39:11.839Z,39.50
2017-05-29T11:41:40.120Z,37.70
2017-05-29T11:44:08.447Z,36.60
2017-05-29T11:46:37.697Z,34.90
2017-05-29T11:49:06.074Z,36.20
2017-05-29T11:51:34.396Z,35.10
2017-05-29T11:54:03.355Z,36.00
2017-05-29T11:56:31.663Z,34.60
2017-05-29T11:58:59.981Z,35.20
2017-05-29T12:01:29.349Z,35.00
2017-05-29T12:03:57.783Z,35.10
2017-05-29T12:06:26.318Z,35.40
2017-05-29T12:08:55.031Z,33.60
2017-05-29T12:11:23.344Z,33.30
2017-05-29T12:13:51.701Z,33.20
2017-05-29T12:16:20.268Z,34.00
2017-05-29T12:18:48.571Z,33.80
2017-05-29T12:21:16.877Z,33.90
2017-05-29T12:23:45.409Z,32.10
2017-05-29T12:26:13.716Z,32.20
2017-05-29T12:28:42.021Z,31.60
2017-05-29T12:31:10.680Z,31.10
2017-05-29T12:33:38.979Z,31.50
2017-05-29T12:36:07.287Z,30.00
2017-05-29T12:38:36.051Z,31.00
2017-05-29T12:41:04.580Z,29.90
2017-05-29T12:43:32.881Z,30.10
2017-05-29T12:46:01.200Z,29.80
2017-05-29T12:48:29.735Z,29.30
2017-05-29T12:50:58.056Z,26.80
2017-05-29T12:53:26.360Z,26.80
2017-05-29T12:55:55.188Z,26.20
2017-05-29T12:58:23.535Z,26.30
2017-05-29T13:00:51.857Z,27.50
2017-05-29T13:03:20.474Z,27.90
2017-05-29T13:05:48.036Z,27.90
2017-05-29T13:08:16.337Z,26.50
2017-05-29T13:10:44.925Z,25.90
2017-05-29T13:13:13.266Z,25.70
2017-05-29T13:15:41.610Z,25.70
2017-05-29T13:18:10.158Z,25.80
2017-05-29T13:20:38.481Z,25.40
2017-05-29T13:23:06.789Z,25.50
2017-05-29T13:25:35.324Z,25.20
2017-05-29T13:28:04.226Z,25.00
2017-05-29T13:30:32.526Z,25.50
2017-05-29T13:33:01.138Z,25.60
2017-05-29T13:35:29.445Z,24.70
2017-05-29T13:37:57.756Z,24.00
2017-05-29T13:40:26.301Z,23.70
2017-05-29T13:42:54.611Z,23.70
2017-05-29T13:45:22.919Z,23.00
2017-05-29T13:47:51.452Z,23.90
2017-05-29T13:50:19.766Z,24.00
2017-05-29T13:52:48.067Z,24.30
2017-05-29T13:55:16.608Z,23.40
2017-05-29T13:57:44.912Z,23.40
2017-05-29T14:00:13.533Z,22.80
2017-05-29T14:02:48.425Z,23.10
2017-05-29T14:05:16.737Z,23.90
2017-05-29T14:07:45.281Z,22.70
2017-05-29T14:10:13.595Z,23.00
2017-05-29T14:12:41.908Z,23.10
2017-05-29T14:15:10.556Z,23.80
2017-05-29T14:17:38.851Z,22.50
2017-05-29T14:20:07.148Z,23.20
2017-05-29T14:22:35.032Z,23.20
2017-05-29T14:25:03.376Z,23.30
2017-05-29T14:27:31.702Z,23.70
2017-05-29T14:30:00.257Z,23.80
2017-05-29T14:32:28.559Z,24.70
2017-05-29T14:34:56.849Z,22.90
2017-05-29T14:37:25.372Z,23.00
2017-05-29T14:39:53.679Z,23.40
2017-05-29T14:42:22.003Z,23.30
2017-05-29T14:44:50.793Z,23.40
2017-05-29T14:47:19.100Z,23.40
2017-05-29T14:49:47.421Z,23.10
2017-05-29T14:52:15.966Z,23.20
2017-05-29T14:54:44.298Z,22.60
2017-05-29T14:57:12.603Z,22.60
2017-05-29T14:59:41.130Z,22.90
2017-05-29T15:02:09.439Z,23.30
2017-05-29T15:04:37.758Z,23.40
2017-05-29T15:07:06.301Z,23.60
2017-05-29T15:09:34.597Z,22.50
2017-05-29T15:12:02.898Z,22.70
2017-05-29T15:14:31.452Z,22.80
2017-05-29T15:16:59.786Z,23.20
2017-05-29T15:19:28.090Z,23.30
2017-05-29T15:21:56.625Z,22.70
2017-05-29T15:24:24.942Z,22.90
2017-05-29T15:26:53.243Z,23.40
2017-05-29T15:29:21.995Z,23.10
2017-05-29T15:31:50.406Z,23.00
2017-05-29T15:34:18.724Z,22.60
2017-05-29T15:36:47.360Z,23.20
2017-05-29T15:39:15.655Z,22.60
2017-05-29T15:41:43.958Z,22.90
2017-05-29T15:44:12.692Z,22.80
2017-05-29T15:46:41.012Z,22.80
2017-05-29T15:49:09.366Z,23.30
2017-05-29T15:51:38.138Z,23.40
2017-05-29T15:54:06.436Z,23.90
2017-05-29T15:56:35.006Z,24.20
2017-05-29T15:59:03.539Z,23.60
2017-05-29T16:01:31.850Z,23.00
2017-05-29T16:04:00.147Z,23.10
2017-05-29T16:06:28.788Z,24.20
2017-05-29T16:08:57.103Z,24.60
2017-05-29T16:11:25.416Z,25.20
2017-05-29T16:13:54.031Z,25.30
2017-05-29T16:16:22.351Z,24.60
2017-05-29T16:18:50.663Z,24.90
2017-05-29T16:21:19.281Z,25.40
2017-05-29T16:23:47.626Z,25.10
2017-05-29T16:26:15.921Z,26.50
2017-05-29T16:28:44.437Z,27.20
2017-05-29T16:31:12.749Z,27.50
2017-05-29T16:33:41.057Z,26.60
2017-05-29T16:36:09.589Z,26.10
2017-05-29T16:38:37.899Z,25.60
2017-05-29T16:41:06.195Z,25.50
2017-05-29T16:43:34.742Z,25.20
2017-05-29T16:46:03.048Z,25.30
2017-05-29T16:48:31.361Z,25.10
2017-05-29T16:51:00.164Z,26.90
2017-05-29T16:53:28.492Z,28.10
2017-05-29T16:55:56.790Z,28.70
2017-05-29T16:58:25.330Z,28.80
2017-05-29T17:00:53.876Z,29.60
2017-05-29T17:03:22.190Z,30.00
2017-05-29T17:05:50.715Z,30.20
2017-05-29T17:08:19.007Z,30.30
2017-05-29T17:10:47.327Z,30.70
2017-05-29T17:13:16.658Z,31.80
2017-05-29T17:15:44.958Z,32.50
2017-05-29T17:18:13.279Z,33.50
2017-05-29T17:20:41.806Z,34.20
2017-05-29T17:23:09.342Z,34.20
2017-05-29T17:25:37.634Z,35.90
2017-05-29T17:28:06.162Z,36.20
2017-05-29T17:30:34.491Z,37.00
2017-05-29T17:33:02.802Z,37.30
2017-05-29T17:35:31.352Z,37.70
2017-05-29T17:38:01.363Z,38.10
2017-05-29T17:40:29.709Z,38.80
2017-05-29T17:42:58.185Z,39.30
2017-05-29T17:45:26.723Z,39.40
2017-05-29T17:47:55.061Z,39.70
2017-05-29T17:50:23.390Z,40.10
2017-05-29T17:52:52.062Z,40.60
2017-05-29T17:55:20.388Z,41.30
2017-05-29T17:57:48.704Z,40.00
2017-05-29T18:00:17.330Z,40.20
2017-05-29T18:02:44.864Z,40.10
2017-05-29T18:05:13.174Z,40.80
2017-05-29T18:07:41.721Z,41.30
2017-05-29T18:10:10.035Z,41.70
2017-05-29T18:12:38.368Z,42.00
2017-05-29T18:15:06.962Z,42.10
2017-05-29T18:17:35.281Z,42.70
2017-05-29T18:20:03.594Z,42.90
2017-05-29T18:22:33.022Z,43.30
2017-05-29T18:25:01.340Z,43.60
2017-05-29T18:27:29.660Z,43.70
2017-05-29T18:29:58.188Z,44.30
2017-05-29T18:32:26.511Z,44.40
2017-05-29T18:34:54.887Z,44.70
2017-05-29T18:37:23.701Z,45.10
2017-05-29T18:39:52.020Z,45.60
2017-05-29T18:42:20.345Z,46.00
2017-05-29T18:44:48.305Z,46.00
2017-05-29T18:47:16.606Z,47.30
2017-05-29T18:49:44.949Z,47.90
2017-05-29T18:52:12.791Z,47.80
2017-05-29T18:54:41.110Z,48.90
2017-05-29T18:57:08.638Z,48.90
2017-05-29T18:59:37.161Z,49.90
2017-05-29T19:02:05.477Z,49.90
2017-05-29T19:04:33.793Z,50.60
2017-05-29T19:07:02.409Z,51.20
2017-05-29T19:09:30.724Z,50.50
2017-05-29T19:11:59.866Z,51.70
2017-05-29T19:14:28.523Z,52.60
2017-05-29T19:16:56.059Z,52.60
2017-05-29T19:19:24.392Z,52.90
2017-05-29T19:21:53.076Z,53.40
2017-05-29T19:24:21.400Z,54.70
2017-05-29T19:26:49.730Z,55.10
2017-05-29T19:29:18.268Z,55.70
2017-05-29T19:31:46.563Z,55.30
2017-05-29T19:34:14.890Z,55.10
2017-05-29T19:36:43.510Z,55.20
2017-05-29T19:39:11.819Z,55.30
2017-05-29T19:41:40.119Z,55.50
2017-05-29T19:44:08.647Z,56.60
2017-05-29T19:46:38.166Z,59.00
2017-05-29T19:49:06.510Z,59.90
2017-05-29T19:51:36.905Z,59.90
2017-05-29T19:54:05.254Z,62.70
2017-05-29T19:56:33.571Z,62.50
2017-05-29T19:59:02.586Z,63.10
2017-05-29T20:01:30.893Z,64.70
2017-05-29T20:03:59.226Z,66.50
2017-05-29T20:06:27.757Z,67.60
2017-05-29T20:08:56.072Z,68.50
2017-05-29T20:11:24.386Z,69.90
2017-05-29T20:13:52.236Z,69.80
2017-05-29T20:16:20.563Z,72.20
2017-05-29T20:18:48.870Z,73.30
2017-05-29T20:21:17.490Z,74.50
2017-05-29T20:23:45.827Z,75.70
2017-05-29T20:26:14.142Z,75.80
2017-05-29T20:28:42.673Z,77.30
2017-05-29T20:31:10.830Z,77.30
2017-05-29T20:33:39.205Z,79.50
2017-05-29T20:36:07.762Z,79.60
2017-05-29T20:38:36.131Z,79.50
2017-05-29T20:41:03.688Z,79.50
2017-05-29T20:43:32.611Z,80.50
2017-05-29T20:46:01.144Z,80.70
2017-05-29T20:48:29.474Z,81.00
2017-05-29T20:50:58.097Z,81.30
2017-05-29T20:53:26.442Z,81.90
2017-05-29T20:55:53.993Z,81.80
2017-05-29T20:58:22.598Z,82.20
2017-05-29T21:00:51.538Z,82.60
2017-05-29T21:03:20.809Z,83.20
2017-05-29T21:05:49.437Z,83.90
2017-05-29T21:08:17.752Z,84.40
2017-05-29T21:10:46.065Z,84.80
2017-05-29T21:13:13.898Z,84.70
2017-05-29T21:15:42.216Z,86.10
2017-05-29T21:18:10.518Z,86.40
2017-05-29T21:20:39.186Z,85.60
2017-05-29T21:23:06.763Z,85.70
2017-05-29T21:25:35.074Z,86.50
2017-05-29T21:28:04.592Z,85.50
2017-05-29T21:30:33.022Z,85.80
2017-05-29T21:33:01.352Z,86.20
2017-05-29T21:35:30.011Z,86.60
2017-05-29T21:37:58.332Z,86.30
2017-05-29T21:40:25.895Z,86.30
2017-05-29T21:42:54.643Z,86.30
2017-05-29T21:45:22.941Z,85.10
2017-05-29T21:47:50.484Z,85.00
2017-05-29T21:50:19.111Z,84.00
2017-05-29T21:52:48.447Z,84.20
2017-05-29T21:55:16.760Z,84.30
2017-05-29T21:57:44.542Z,84.20
2017-05-29T22:00:13.814Z,86.00
2017-05-29T22:02:42.128Z,88.00
2017-05-29T22:05:09.890Z,88.00
2017-05-29T22:07:38.226Z,87.70
2017-05-29T22:10:06.513Z,86.80
2017-05-29T22:12:35.066Z,85.50
2017-05-29T22:15:03.446Z,87.00
2017-05-29T22:17:31.743Z,87.20
2017-05-29T22:20:01.639Z,86.80
2017-05-29T22:22:30.202Z,88.10
2017-05-29T22:24:59.945Z,89.10
2017-05-29T22:27:32.839Z,88.70
2017-05-29T22:30:01.172Z,88.80
2017-05-29T22:32:29.465Z,88.30
2017-05-29T22:34:58.007Z,88.70
2017-05-29T22:37:26.326Z,88.30
2017-05-29T22:39:54.866Z,88.50
2017-05-29T22:42:23.603Z,89.10
2017-05-29T22:44:51.927Z,89.80
2017-05-29T22:47:20.249Z,90.20
2017-05-29T22:49:48.916Z,90.60
2017-05-29T22:52:17.241Z,90.50
2017-05-29T22:54:45.551Z,90.70
2017-05-29T22:57:13.373Z,90.70
2017-05-29T22:59:41.694Z,90.80
2017-05-29T23:02:10.013Z,90.70
2017-05-29T23:04:38.552Z,90.50
2017-05-29T23:07:06.864Z,90.50
2017-05-29T23:09:35.188Z,90.50
2017-05-29T23:12:03.729Z,90.50
2017-05-29T23:14:32.032Z,90.60
2017-05-29T23:17:00.333Z,90.90
2017-05-29T23:19:28.860Z,91.10
2017-05-29T23:21:57.172Z,91.10
2017-05-29T23:24:25.474Z,91.20
2017-05-29T23:26:54.111Z,91.50
2017-05-29T23:29:22.418Z,91.50
2017-05-29T23:31:50.716Z,91.60
2017-05-29T23:34:19.230Z,91.70
2017-05-29T23:36:47.530Z,91.60
2017-05-29T23:39:15.834Z,91.70
2017-05-29T23:41:44.359Z,91.70
2017-05-29T23:44:12.646Z,91.70
2017-05-29T23:46:40.179Z,91.70
2017-05-29T23:49:08.705Z,91.60
2017-05-29T23:51:37.008Z,91.60
2017-05-29T23:54:05.311Z,91.50
2017-05-29T23:56:33.815Z,91.60
2017-05-29T23:59:02.136Z,91.40
